Time;durP1;ratioP1;P1;durP2;ratioP2;P2;SDS_P1;SDS_P2;PMS_P1;PMS_P2;Temp;Humidity;BMP_temperature;BMP_pressure;BME280_temperature;BME280_humidity;BME280_pressure;Samples;Min_cycle;Max_cycle;Signal;HPM_P1;HPM_P2
2023/10/24 00:03:17;;;;;;;24.10;14.30;;;;;;;;;;103776;1290;545508;-75
2023/10/24 00:06:54;;;;;;;22.50;13.60;;;;;;;;;;103745;1289;545335;-74
2023/10/24 00:10:32;;;;;;;24.70;13.30;;;;;;;;;;103672;1291;544849;-74
2023/10/24 00:14:09;;;;;;;20.20;10.90;;;;;;;;;;103668;1291;545028;-75
2023/10/24 00:17:46;;;;;;;21.40;11.10;;;;;;;;;;103756;1289;545256;-74
2023/10/24 00:21:24;;;;;;;17.80;9.90;;;;;;;;;;103764;1289;545254;-74
2023/10/24 00:25:01;;;;;;;21.70;11.50;;;;;;;;;;103768;1289;545901;-74
2023/10/24 00:28:39;;;;;;;19.30;10.60;;;;;;;;;;103709;1295;545436;-75
2023/10/24 00:32:16;;;;;;;24.90;13.30;;;;;;;;;;103758;1292;546975;-74
2023/10/24 00:35:54;;;;;;;27.20;13.70;;;;;;;;;;103691;1290;545736;-74
2023/10/24 00:39:27;;;;;;;24.50;12.70;;;;;;;;;;103668;1291;544813;-74
2023/10/24 00:43:09;;;;;;;25.00;12.90;;;;;;;;;;103808;1288;545390;-74
2023/10/24 00:46:46;;;;;;;23.50;12.60;;;;;;;;;;103854;1292;546084;-74
2023/10/24 00:50:20;;;;;;;22.10;11.30;;;;;;;;;;103842;1291;545321;-74
2023/10/24 00:54:04;;;;;;;19.70;10.60;;;;;;;;;;103686;1292;544809;-74
2023/10/24 00:57:40;;;;;;;19.40;10.80;;;;;;;;;;104076;1286;545434;-74
2023/10/24 01:01:18;;;;;;;21.30;11.60;;;;;;;;;;103761;1290;544835;-74
2023/10/24 01:04:53;;;;;;;20.30;11.10;;;;;;;;;;103919;1292;545424;-74
2023/10/24 01:08:37;;;;;;;25.10;10.00;;;;;;;;;;103747;1290;545005;-74
2023/10/24 01:12:14;;;;;;;22.00;9.50;;;;;;;;;;103768;1291;545859;-74
2023/10/24 01:15:51;;;;;;;20.80;9.20;;;;;;;;;;103751;1289;544824;-74
2023/10/24 01:19:29;;;;;;;22.70;9.60;;;;;;;;;;103775;1291;544919;-74
2023/10/24 01:23:10;;;;;;;23.10;9.90;;;;;;;;;;103610;1295;545927;-74
2023/10/24 01:26:44;;;;;;;23.20;8.90;;;;;;;;;;103799;1295;545093;-74
2023/10/24 01:30:21;;;;;;;22.40;8.30;;;;;;;;;;103749;1289;545069;-74
2023/10/24 01:33:59;;;;;;;18.50;7.50;;;;;;;;;;103724;1296;544767;-74
2023/10/24 01:37:36;;;;;;;18.80;8.00;;;;;;;;;;103681;1292;544797;-75
2023/10/24 01:41:14;;;;;;;18.50;7.30;;;;;;;;;;103819;1289;546038;-74
2023/10/24 01:44:51;;;;;;;14.80;7.10;;;;;;;;;;103793;1292;546346;-74
2023/10/24 01:48:29;;;;;;;17.60;7.20;;;;;;;;;;103762;1294;544804;-75
2023/10/24 01:52:02;;;;;;;15.90;6.50;;;;;;;;;;103803;1292;545769;-74
2023/10/24 01:55:42;;;;;;;14.00;6.50;;;;;;;;;;104102;1285;545542;-74
2023/10/24 01:59:25;;;;;;;16.20;7.30;;;;;;;;;;103773;1289;546069;-74
2023/10/24 02:03:02;;;;;;;13.30;6.50;;;;;;;;;;103730;1292;544992;-74
2023/10/24 02:06:36;;;;;;;14.70;6.60;;;;;;;;;;103925;1292;546209;-74
2023/10/24 02:10:19;;;;;;;14.00;6.10;;;;;;;;;;103657;1291;545523;-74
2023/10/24 02:13:56;;;;;;;15.50;6.90;;;;;;;;;;103729;1289;544789;-74
2023/10/24 02:17:34;;;;;;;14.40;6.70;;;;;;;;;;103738;1291;545460;-75
2023/10/24 02:21:11;;;;;;;15.90;7.10;;;;;;;;;;103943;1292;545451;-77
2023/10/24 02:24:48;;;;;;;14.20;6.30;;;;;;;;;;103754;1295;545017;-75
2023/10/24 02:28:25;;;;;;;14.30;7.00;;;;;;;;;;103786;1292;545336;-74
2023/10/24 02:32:03;;;;;;;14.90;8.20;;;;;;;;;;103718;1292;544799;-74
2023/10/24 02:35:43;;;;;;;14.90;8.40;;;;;;;;;;103675;1292;545932;-74
2023/10/24 02:39:20;;;;;;;14.20;7.70;;;;;;;;;;103761;1292;544844;-75
2023/10/24 02:42:56;;;;;;;16.10;7.10;;;;;;;;;;103722;1292;545377;-74
2023/10/24 02:46:33;;;;;;;13.70;6.70;;;;;;;;;;104467;1282;545210;-76
2023/10/24 02:50:11;;;;;;;14.60;7.20;;;;;;;;;;103711;1289;544953;-74
2023/10/24 02:53:48;;;;;;;14.20;6.90;;;;;;;;;;103893;1292;545381;-74
2023/10/24 02:57:26;;;;;;;15.30;7.10;;;;;;;;;;103790;1290;544756;-74
2023/10/24 03:01:04;;;;;;;15.80;7.80;;;;;;;;;;103750;1291;545682;-74
2023/10/24 03:04:37;;;;;;;14.00;7.80;;;;;;;;;;103919;1289;545374;-75
2023/10/24 03:08:19;;;;;;;15.30;8.10;;;;;;;;;;103752;1302;544872;-74
2023/10/24 03:11:57;;;;;;;16.00;8.30;;;;;;;;;;103754;1291;545297;-81
2023/10/24 03:15:35;;;;;;;13.70;7.50;;;;;;;;;;103690;1300;545051;-74
2023/10/24 03:19:12;;;;;;;12.70;6.70;;;;;;;;;;103747;1292;545586;-74
2023/10/24 03:22:49;;;;;;;14.90;7.10;;;;;;;;;;103650;1291;545364;-74
2023/10/24 03:26:27;;;;;;;14.20;6.90;;;;;;;;;;104096;1292;545727;-74
2023/10/24 03:30:05;;;;;;;17.70;7.40;;;;;;;;;;103677;1291;545049;-74
2023/10/24 03:33:41;;;;;;;14.40;7.10;;;;;;;;;;103695;1291;544908;-75
2023/10/24 03:37:20;;;;;;;11.40;5.90;;;;;;;;;;103892;1296;545635;-75
2023/10/24 03:40:57;;;;;;;14.50;6.60;;;;;;;;;;103734;1290;545687;-74
2023/10/24 03:44:34;;;;;;;12.00;6.60;;;;;;;;;;103732;1289;545351;-74
2023/10/24 03:48:12;;;;;;;12.40;6.80;;;;;;;;;;103751;1289;544971;-74
2023/10/24 03:51:49;;;;;;;12.60;6.70;;;;;;;;;;104019;1289;544758;-74
2023/10/24 03:55:27;;;;;;;12.70;6.10;;;;;;;;;;104134;1286;545483;-74
2023/10/24 03:59:09;;;;;;;11.40;5.80;;;;;;;;;;103557;1292;548350;-76
2023/10/24 04:02:42;;;;;;;14.10;7.10;;;;;;;;;;103813;1290;544781;-77
2023/10/24 04:06:19;;;;;;;14.70;7.70;;;;;;;;;;103760;1292;544963;-74
2023/10/24 04:09:57;;;;;;;15.80;8.10;;;;;;;;;;103729;1290;545798;-74
2023/10/24 04:13:34;;;;;;;14.40;7.70;;;;;;;;;;103712;1289;545332;-74
2023/10/24 04:17:11;;;;;;;16.10;8.00;;;;;;;;;;104032;1289;544774;-74
2023/10/24 04:20:45;;;;;;;14.40;7.60;;;;;;;;;;103939;1289;544811;-77
2023/10/24 04:24:31;;;;;;;15.00;8.10;;;;;;;;;;103718;1290;544854;-74
2023/10/24 04:28:05;;;;;;;15.30;8.30;;;;;;;;;;103752;1303;545513;-74
2023/10/24 04:31:43;;;;;;;13.70;7.40;;;;;;;;;;103719;1292;546073;-74
2023/10/24 04:35:20;;;;;;;14.80;6.80;;;;;;;;;;103556;1293;545710;-74
2023/10/24 04:38:57;;;;;;;15.30;6.80;;;;;;;;;;103734;1302;544712;-77
2023/10/24 04:42:35;;;;;;;14.70;6.60;;;;;;;;;;103723;1295;545084;-74
2023/10/24 04:46:13;;;;;;;15.00;8.30;;;;;;;;;;104099;1289;545449;-74
2023/10/24 04:49:46;;;;;;;14.00;7.60;;;;;;;;;;104519;1282;544843;-74
2023/10/24 04:53:29;;;;;;;16.00;7.60;;;;;;;;;;103873;1289;544846;-77
2023/10/24 04:57:07;;;;;;;20.80;11.00;;;;;;;;;;103757;1291;545084;-74
2023/10/24 05:00:44;;;;;;;21.30;10.40;;;;;;;;;;103696;1293;544917;-74
2023/10/24 05:04:21;;;;;;;18.50;10.20;;;;;;;;;;104583;1282;544752;-74
2023/10/24 05:07:59;;;;;;;15.90;8.70;;;;;;;;;;103732;1291;544757;-74
2023/10/24 05:11:39;;;;;;;17.30;8.40;;;;;;;;;;103772;1289;544990;-74
2023/10/24 05:15:10;;;;;;;16.10;8.40;;;;;;;;;;103803;1291;545496;-74
2023/10/24 05:18:51;;;;;;;16.50;8.30;;;;;;;;;;103799;1288;545514;-75
2023/10/24 05:22:30;;;;;;;13.80;7.40;;;;;;;;;;103699;1291;545546;-81
2023/10/24 05:26:06;;;;;;;18.40;8.50;;;;;;;;;;103969;1289;544855;-74
2023/10/24 05:29:44;;;;;;;15.90;7.80;;;;;;;;;;103772;1295;545042;-74
2023/10/24 05:33:21;;;;;;;17.10;8.50;;;;;;;;;;103634;1291;545110;-74
2023/10/24 05:36:59;;;;;;;14.10;7.50;;;;;;;;;;103701;1290;545050;-74
2023/10/24 05:40:36;;;;;;;18.90;9.20;;;;;;;;;;103740;1295;546842;-78
2023/10/24 05:44:14;;;;;;;20.40;10.90;;;;;;;;;;103955;1286;544810;-74
2023/10/24 05:47:51;;;;;;;20.50;11.60;;;;;;;;;;103974;1289;545155;-74
2023/10/24 05:51:29;;;;;;;26.20;14.50;;;;;;;;;;103681;1293;544740;-74
2023/10/24 05:55:06;;;;;;;27.50;15.70;;;;;;;;;;103780;1289;545061;-80
2023/10/24 05:58:49;;;;;;;27.90;15.20;;;;;;;;;;103639;1289;547817;-74
2023/10/24 06:02:26;;;;;;;25.80;15.20;;;;;;;;;;103564;1292;547811;-74
2023/10/24 06:05:58;;;;;;;22.50;14.80;;;;;;;;;;103720;1291;546030;-75
2023/10/24 06:09:36;;;;;;;22.30;13.90;;;;;;;;;;104087;1286;544757;-74
2023/10/24 06:13:09;;;;;;;25.10;12.90;;;;;;;;;;103918;1288;546038;-74
2023/10/24 06:16:52;;;;;;;22.60;12.30;;;;;;;;;;104233;1284;545460;-76
2023/10/24 06:20:30;;;;;;;19.60;11.80;;;;;;;;;;103800;1292;545652;-74
2023/10/24 06:24:07;;;;;;;23.00;10.90;;;;;;;;;;103761;1289;544808;-74
2023/10/24 06:27:45;;;;;;;22.10;12.10;;;;;;;;;;103728;1292;544817;-82
2023/10/24 06:31:23;;;;;;;24.00;13.10;;;;;;;;;;104478;1282;544961;-74
2023/10/24 06:35:00;;;;;;;34.50;17.40;;;;;;;;;;103764;1294;544936;-75
2023/10/24 06:38:37;;;;;;;34.90;18.20;;;;;;;;;;103759;1292;545125;-76
2023/10/24 06:42:15;;;;;;;33.00;16.80;;;;;;;;;;103758;1291;546078;-74
2023/10/24 06:45:53;;;;;;;26.10;14.40;;;;;;;;;;103723;1294;544858;-74
2023/10/24 06:49:49;;;;;;;21.10;12.50;;;;;;;;;;103622;1292;547948;-75
2023/10/24 06:53:08;;;;;;;23.80;14.70;;;;;;;;;;103809;1293;544805;-74
2023/10/24 06:57:04;;;;;;;27.10;16.90;;;;;;;;;;104024;1289;547847;-79
2023/10/24 07:00:24;;;;;;;29.70;16.80;;;;;;;;;;103896;1289;545045;-74
2023/10/24 07:03:59;;;;;;;24.30;14.20;;;;;;;;;;103948;1288;544987;-74
2023/10/24 07:07:39;;;;;;;24.70;12.70;;;;;;;;;;103637;1292;545011;-78
2023/10/24 07:11:15;;;;;;;23.90;13.80;;;;;;;;;;103769;1290;546235;-75
2023/10/24 07:14:56;;;;;;;28.70;14.60;;;;;;;;;;103773;1289;544783;-74
2023/10/24 07:18:30;;;;;;;26.30;14.30;;;;;;;;;;104141;1286;544727;-74
2023/10/24 07:22:12;;;;;;;24.20;11.70;;;;;;;;;;103774;1291;548026;-75
2023/10/24 07:25:45;;;;;;;19.80;9.30;;;;;;;;;;103702;1293;544990;-75
2023/10/24 07:29:23;;;;;;;17.00;8.90;;;;;;;;;;103853;1289;544766;-75
2023/10/24 07:32:59;;;;;;;19.70;8.70;;;;;;;;;;104790;1285;545744;-74
2023/10/24 07:36:37;;;;;;;21.60;8.80;;;;;;;;;;103763;1291;544871;-74
2023/10/24 07:40:10;;;;;;;19.40;8.50;;;;;;;;;;103883;1293;544844;-75
2023/10/24 07:43:59;;;;;;;20.40;10.00;;;;;;;;;;103602;1291;548189;-76
2023/10/24 07:47:31;;;;;;;22.90;9.00;;;;;;;;;;103781;1292;544972;-75
2023/10/24 07:51:10;;;;;;;17.20;8.90;;;;;;;;;;103962;1290;544959;-75
2023/10/24 07:54:51;;;;;;;18.30;8.80;;;;;;;;;;103652;1294;547786;-75
2023/10/24 07:58:29;;;;;;;18.70;9.30;;;;;;;;;;103627;1291;548184;-75
2023/10/24 08:02:01;;;;;;;23.20;11.50;;;;;;;;;;103706;1292;545046;-75
2023/10/24 08:05:38;;;;;;;28.10;11.90;;;;;;;;;;103803;1293;544954;-75
2023/10/24 08:09:16;;;;;;;20.40;10.40;;;;;;;;;;103777;1292;545597;-74
2023/10/24 08:12:53;;;;;;;18.70;8.90;;;;;;;;;;103852;1291;545399;-74
2023/10/24 08:16:36;;;;;;;15.60;7.70;;;;;;;;;;103234;1301;548426;-74
2023/10/24 08:20:14;;;;;;;13.50;7.50;;;;;;;;;;103670;1291;547987;-79
2023/10/24 08:23:46;;;;;;;13.70;6.60;;;;;;;;;;103707;1291;544964;-75
2023/10/24 08:27:22;;;;;;;13.10;7.20;;;;;;;;;;103764;1292;544989;-75
2023/10/24 08:31:00;;;;;;;13.70;7.90;;;;;;;;;;103772;1292;544944;-74
2023/10/24 08:34:38;;;;;;;13.80;7.10;;;;;;;;;;103800;1295;544839;-78
2023/10/24 08:38:15;;;;;;;10.70;5.90;;;;;;;;;;103784;1289;545000;-76
2023/10/24 08:41:59;;;;;;;11.30;6.40;;;;;;;;;;103600;1291;548012;-75
2023/10/24 08:45:30;;;;;;;15.50;6.60;;;;;;;;;;103800;1292;545723;-76
2023/10/24 08:49:08;;;;;;;12.10;6.50;;;;;;;;;;103853;1289;544980;-75
2023/10/24 08:52:45;;;;;;;13.40;6.80;;;;;;;;;;103920;1289;546168;-75
2023/10/24 08:56:39;;;;;;;11.40;6.30;;;;;;;;;;103634;1297;548021;-76
2023/10/24 08:59:57;;;;;;;18.10;8.60;;;;;;;;;;103961;1292;545275;-75
2023/10/24 09:03:40;;;;;;;15.00;6.60;;;;;;;;;;103783;1301;545247;-76
2023/10/24 09:07:17;;;;;;;11.90;5.50;;;;;;;;;;103804;1292;544797;-77
2023/10/24 09:10:56;;;;;;;13.70;6.50;;;;;;;;;;103772;1291;544904;-76
2023/10/24 09:14:32;;;;;;;15.60;9.60;;;;;;;;;;103867;1292;545304;-82
2023/10/24 09:18:10;;;;;;;16.40;9.00;;;;;;;;;;103822;1292;544798;-80
2023/10/24 09:21:48;;;;;;;16.60;9.00;;;;;;;;;;104175;1286;544863;-76
2023/10/24 09:25:25;;;;;;;15.70;8.10;;;;;;;;;;103838;1294;545038;-80
2023/10/24 09:29:03;;;;;;;13.90;8.10;;;;;;;;;;103843;1289;544780;-74
2023/10/24 09:32:41;;;;;;;14.90;7.90;;;;;;;;;;103828;1292;545795;-76
2023/10/24 09:36:23;;;;;;;13.90;7.40;;;;;;;;;;103810;1289;545344;-74
2023/10/24 09:39:56;;;;;;;14.00;7.80;;;;;;;;;;103786;1290;544892;-74
2023/10/24 09:43:34;;;;;;;14.60;8.50;;;;;;;;;;103738;1291;545427;-74
2023/10/24 09:47:09;;;;;;;15.80;8.70;;;;;;;;;;103777;1292;544755;-81
2023/10/24 09:50:47;;;;;;;15.60;7.80;;;;;;;;;;103784;1291;545370;-76
2023/10/24 09:54:24;;;;;;;13.90;7.50;;;;;;;;;;103822;1291;544814;-74
2023/10/24 09:58:04;;;;;;;15.00;8.80;;;;;;;;;;103735;1289;544749;-75
2023/10/24 10:01:40;;;;;;;15.60;8.10;;;;;;;;;;103814;1292;544748;-75
2023/10/24 10:05:17;;;;;;;13.50;7.10;;;;;;;;;;103731;1295;544802;-78
2023/10/24 10:08:55;;;;;;;15.90;9.50;;;;;;;;;;104090;1286;545184;-75
2023/10/24 10:12:29;;;;;;;21.90;14.80;;;;;;;;;;104211;1289;545108;-76
2023/10/24 10:16:44;;;;;;;17.20;11.00;;;;;;;;;;103678;1293;548215;-76
2023/10/24 10:19:58;;;;;;;13.80;7.60;;;;;;;;;;103760;1292;546245;-78
2023/10/24 10:23:32;;;;;;;13.00;7.30;;;;;;;;;;103912;1289;545214;-74
2023/10/24 10:27:38;;;;;;;26.60;14.80;;;;;;;;;;103873;1290;544734;-76
2023/10/24 10:30:41;;;;;;;25.20;14.40;;;;;;;;;;103766;1290;545766;-73
2023/10/24 10:34:12;;;;;;;39.20;30.10;;;;;;;;;;103899;1291;544799;-75
2023/10/24 10:37:59;;;;;;;18.40;10.90;;;;;;;;;;103927;1291;545282;-74
2023/10/24 10:41:45;;;;;;;14.80;7.20;;;;;;;;;;103716;1289;545476;-76
2023/10/24 10:45:23;;;;;;;34.90;22.20;;;;;;;;;;103575;1292;545088;-74
2023/10/24 10:49:06;;;;;;;19.70;11.80;;;;;;;;;;103703;1291;544772;-75
2023/10/24 10:52:53;;;;;;;19.30;8.20;;;;;;;;;;104275;1285;544761;-75
2023/10/24 10:56:13;;;;;;;10.80;6.10;;;;;;;;;;103865;1292;545880;-75
2023/10/24 10:59:53;;;;;;;9.90;4.90;;;;;;;;;;103764;1292;545723;-76
2023/10/24 11:03:33;;;;;;;11.00;5.10;;;;;;;;;;104617;1282;549048;-74
2023/10/24 11:07:06;;;;;;;10.30;5.00;;;;;;;;;;104299;1289;544830;-75
2023/10/24 11:10:54;;;;;;;9.70;4.40;;;;;;;;;;103788;1294;544818;-81
2023/10/24 11:14:37;;;;;;;9.90;4.10;;;;;;;;;;103405;1294;544975;-75
2023/10/24 11:18:14;;;;;;;8.20;3.60;;;;;;;;;;103778;1294;544795;-75
2023/10/24 11:21:54;;;;;;;10.70;4.30;;;;;;;;;;104111;1285;544894;-76
2023/10/24 11:25:30;;;;;;;10.50;3.40;;;;;;;;;;103871;1290;545348;-76
2023/10/24 11:29:13;;;;;;;7.80;3.10;;;;;;;;;;103600;1293;547905;-76
2023/10/24 11:32:47;;;;;;;8.20;3.00;;;;;;;;;;103390;1294;547776;-76
2023/10/24 11:36:22;;;;;;;7.80;3.10;;;;;;;;;;103793;1292;545046;-76
2023/10/24 11:39:59;;;;;;;7.10;2.90;;;;;;;;;;103878;1292;545400;-76
2023/10/24 11:43:37;;;;;;;8.60;3.10;;;;;;;;;;103763;1292;545207;-75
2023/10/24 11:47:15;;;;;;;10.50;3.40;;;;;;;;;;103763;1290;544839;-79
2023/10/24 11:50:48;;;;;;;6.20;2.60;;;;;;;;;;104374;1289;544888;-82
2023/10/24 11:54:31;;;;;;;8.00;2.90;;;;;;;;;;103765;1291;544986;-76
2023/10/24 11:58:09;;;;;;;9.40;3.10;;;;;;;;;;103724;1291;545471;-77
2023/10/24 12:01:46;;;;;;;7.50;3.10;;;;;;;;;;103821;1292;545575;-76
2023/10/24 12:05:24;;;;;;;8.20;3.00;;;;;;;;;;103777;1292;545954;-76
2023/10/24 12:08:59;;;;;;;9.50;3.00;;;;;;;;;;103795;1291;545110;-82
2023/10/24 12:12:43;;;;;;;8.40;3.10;;;;;;;;;;103857;1292;545734;-77
2023/10/24 12:16:19;;;;;;;8.60;3.70;;;;;;;;;;103920;1289;545015;-77
2023/10/24 12:20:00;;;;;;;9.50;3.90;;;;;;;;;;103796;1291;544973;-80
2023/10/24 12:23:31;;;;;;;12.30;3.50;;;;;;;;;;104048;1289;545082;-76
2023/10/24 12:27:08;;;;;;;8.80;3.00;;;;;;;;;;104559;1282;544849;-81
2023/10/24 12:30:52;;;;;;;10.10;3.00;;;;;;;;;;104014;1289;545816;-77
2023/10/24 12:34:25;;;;;;;10.80;3.30;;;;;;;;;;103959;1288;544873;-76
2023/10/24 12:38:09;;;;;;;10.80;3.40;;;;;;;;;;103934;1292;544955;-75
2023/10/24 12:41:51;;;;;;;8.50;3.40;;;;;;;;;;103988;1286;547976;-78
2023/10/24 12:45:23;;;;;;;9.50;3.20;;;;;;;;;;103470;1297;544854;-77
2023/10/24 12:49:06;;;;;;;7.90;2.90;;;;;;;;;;104017;1286;547828;-77
2023/10/24 12:52:38;;;;;;;8.00;3.40;;;;;;;;;;103905;1291;545966;-75
2023/10/24 12:56:17;;;;;;;7.50;3.20;;;;;;;;;;103818;1289;545553;-77
2023/10/24 12:59:53;;;;;;;9.30;3.70;;;;;;;;;;103700;1292;544975;-76
2023/10/24 13:03:30;;;;;;;6.70;3.10;;;;;;;;;;104053;1289;545513;-76
2023/10/24 13:07:08;;;;;;;8.80;3.60;;;;;;;;;;104146;1289;545812;-77
2023/10/24 13:10:46;;;;;;;8.30;3.50;;;;;;;;;;103906;1295;544829;-75
2023/10/24 13:14:22;;;;;;;9.20;3.70;;;;;;;;;;103990;1289;544956;-83
2023/10/24 13:18:00;;;;;;;8.40;3.30;;;;;;;;;;103978;1292;545199;-76
2023/10/24 13:21:37;;;;;;;8.30;3.50;;;;;;;;;;103686;1295;545966;-76
2023/10/24 13:25:11;;;;;;;9.40;3.40;;;;;;;;;;103863;1289;545437;-78
2023/10/24 13:28:54;;;;;;;9.00;3.50;;;;;;;;;;103943;1292;545809;-75
2023/10/24 13:32:32;;;;;;;10.80;4.10;;;;;;;;;;103710;1289;545452;-78
2023/10/24 13:36:11;;;;;;;10.10;4.20;;;;;;;;;;103845;1289;545424;-75
2023/10/24 13:39:46;;;;;;;11.90;3.80;;;;;;;;;;103801;1290;545555;-75
2023/10/24 13:43:24;;;;;;;15.00;6.80;;;;;;;;;;103757;1292;545906;-74
2023/10/24 13:47:02;;;;;;;14.60;7.40;;;;;;;;;;103704;1292;544880;-75
2023/10/24 13:50:58;;;;;;;14.70;6.90;;;;;;;;;;103704;1294;547770;-75
2023/10/24 13:54:12;;;;;;;15.80;6.70;;;;;;;;;;103992;1288;544741;-74
2023/10/24 13:57:55;;;;;;;15.10;6.60;;;;;;;;;;103855;1289;545601;-73
2023/10/24 14:01:33;;;;;;;12.00;6.70;;;;;;;;;;103730;1292;544961;-75
2023/10/24 14:05:17;;;;;;;15.40;7.70;;;;;;;;;;103642;1292;548146;-74
2023/10/24 14:08:48;;;;;;;13.60;6.80;;;;;;;;;;103961;1294;545600;-74
2023/10/24 14:12:26;;;;;;;15.70;6.80;;;;;;;;;;103947;1292;544965;-74
2023/10/24 14:16:03;;;;;;;14.10;6.30;;;;;;;;;;103844;1291;546000;-74
2023/10/24 14:19:40;;;;;;;14.00;7.10;;;;;;;;;;103794;1292;547135;-74
2023/10/24 14:23:17;;;;;;;16.00;8.20;;;;;;;;;;103806;1291;544993;-77
2023/10/24 14:26:55;;;;;;;16.50;8.10;;;;;;;;;;103742;1291;545630;-74
2023/10/24 14:30:32;;;;;;;19.20;10.20;;;;;;;;;;103741;1291;544849;-75
2023/10/24 14:34:16;;;;;;;21.30;10.10;;;;;;;;;;103847;1289;548040;-74
2023/10/24 14:37:47;;;;;;;25.10;13.30;;;;;;;;;;104579;1280;544746;-74
2023/10/24 14:41:21;;;;;;;23.50;12.60;;;;;;;;;;103875;1288;544740;-74
2023/10/24 14:45:02;;;;;;;18.10;8.10;;;;;;;;;;103771;1291;544804;-74
2023/10/24 14:48:40;;;;;;;16.20;8.30;;;;;;;;;;103680;1291;545875;-74
2023/10/24 14:52:17;;;;;;;17.30;9.70;;;;;;;;;;103751;1289;544924;-74
2023/10/24 14:55:51;;;;;;;28.30;15.40;;;;;;;;;;104155;1291;544850;-74
2023/10/24 14:59:34;;;;;;;25.40;13.40;;;;;;;;;;103714;1289;544915;-74
2023/10/24 15:03:11;;;;;;;23.40;12.90;;;;;;;;;;103885;1288;545231;-75
2023/10/24 15:06:49;;;;;;;16.50;7.90;;;;;;;;;;103727;1292;544862;-75
2023/10/24 15:10:26;;;;;;;12.00;6.30;;;;;;;;;;103769;1292;545591;-75
2023/10/24 15:14:04;;;;;;;13.20;6.40;;;;;;;;;;103776;1289;545475;-75
2023/10/24 15:17:41;;;;;;;10.60;6.10;;;;;;;;;;103753;1291;545223;-75
2023/10/24 15:21:18;;;;;;;13.30;6.90;;;;;;;;;;103599;1292;544748;-75
2023/10/24 15:24:56;;;;;;;14.50;8.10;;;;;;;;;;103615;1297;545465;-75
2023/10/24 15:28:34;;;;;;;14.70;7.40;;;;;;;;;;103809;1289;545481;-75
2023/10/24 15:32:13;;;;;;;12.50;6.80;;;;;;;;;;103738;1293;545173;-74
2023/10/24 15:35:53;;;;;;;13.00;7.50;;;;;;;;;;103729;1292;545643;-74
2023/10/24 15:39:26;;;;;;;15.00;8.20;;;;;;;;;;103741;1292;545012;-75
2023/10/24 15:43:04;;;;;;;14.80;8.10;;;;;;;;;;103847;1291;545534;-75
2023/10/24 15:46:43;;;;;;;19.90;9.10;;;;;;;;;;103717;1291;545645;-74
2023/10/24 15:50:24;;;;;;;21.70;11.60;;;;;;;;;;103697;1301;547987;-79
2023/10/24 15:53:56;;;;;;;20.20;10.50;;;;;;;;;;103907;1294;545119;-74
2023/10/24 15:57:34;;;;;;;16.80;7.80;;;;;;;;;;104298;1289;545609;-81
2023/10/24 16:01:14;;;;;;;17.90;7.60;;;;;;;;;;103912;1301;545436;-75
2023/10/24 16:04:50;;;;;;;16.70;6.30;;;;;;;;;;103746;1291;545383;-74
2023/10/24 16:08:25;;;;;;;18.80;8.00;;;;;;;;;;103890;1291;545998;-75
2023/10/24 16:12:03;;;;;;;15.40;7.60;;;;;;;;;;103813;1292;545013;-74
2023/10/24 16:15:41;;;;;;;14.30;7.50;;;;;;;;;;103779;1289;545641;-74
2023/10/24 16:19:18;;;;;;;18.40;8.70;;;;;;;;;;103732;1289;544930;-74
2023/10/24 16:22:56;;;;;;;15.60;7.60;;;;;;;;;;103484;1295;545046;-78
2023/10/24 16:26:33;;;;;;;15.80;8.30;;;;;;;;;;103729;1294;545018;-74
2023/10/24 16:30:11;;;;;;;16.30;9.00;;;;;;;;;;103775;1290;545041;-76
2023/10/24 16:33:48;;;;;;;15.90;8.70;;;;;;;;;;103746;1291;545054;-75
2023/10/24 16:37:26;;;;;;;27.10;12.30;;;;;;;;;;104577;1283;545102;-83
2023/10/24 16:41:03;;;;;;;45.60;26.20;;;;;;;;;;103729;1292;545006;-76
2023/10/24 16:44:40;;;;;;;45.70;26.40;;;;;;;;;;103829;1290;545695;-78
2023/10/24 16:48:14;;;;;;;53.10;31.60;;;;;;;;;;103984;1289;544779;-83
2023/10/24 16:51:57;;;;;;;65.80;35.80;;;;;;;;;;104071;1289;545052;-74
2023/10/24 16:55:35;;;;;;;64.00;38.00;;;;;;;;;;103808;1292;545068;-74
2023/10/24 16:59:12;;;;;;;67.80;38.60;;;;;;;;;;103726;1290;545018;-74
2023/10/24 17:02:49;;;;;;;45.20;24.50;;;;;;;;;;103903;1289;544980;-74
2023/10/24 17:06:27;;;;;;;35.90;19.70;;;;;;;;;;103796;1289;545151;-75
2023/10/24 17:10:04;;;;;;;28.90;18.30;;;;;;;;;;103749;1293;545718;-75
2023/10/24 17:13:42;;;;;;;26.10;16.40;;;;;;;;;;103749;1292;545063;-74
2023/10/24 17:17:20;;;;;;;32.60;17.70;;;;;;;;;;103755;1292;545070;-75
2023/10/24 17:20:57;;;;;;;33.10;20.10;;;;;;;;;;103663;1291;545108;-74
2023/10/24 17:24:34;;;;;;;47.80;27.00;;;;;;;;;;103796;1293;544932;-80
2023/10/24 17:28:12;;;;;;;146.70;81.00;;;;;;;;;;103817;1298;545629;-74
2023/10/24 17:31:45;;;;;;;93.40;51.00;;;;;;;;;;103921;1288;546078;-74
2023/10/24 17:35:29;;;;;;;48.10;27.50;;;;;;;;;;103773;1289;545757;-74
2023/10/24 17:39:09;;;;;;;41.00;25.90;;;;;;;;;;103740;1291;545131;-85
2023/10/24 17:42:44;;;;;;;54.20;31.60;;;;;;;;;;103943;1296;545034;-74
2023/10/24 17:46:18;;;;;;;82.00;48.00;;;;;;;;;;103829;1292;545998;-77
2023/10/24 17:50:07;;;;;;;77.20;41.00;;;;;;;;;;103778;1290;547853;-85
2023/10/24 17:53:38;;;;;;;71.40;40.00;;;;;;;;;;103881;1292;545026;-86
2023/10/24 17:57:16;;;;;;;50.10;30.00;;;;;;;;;;103778;1292;545374;-87
2023/10/24 18:00:54;;;;;;;55.50;28.50;;;;;;;;;;104509;1285;544758;-75
2023/10/24 18:04:27;;;;;;;47.10;30.60;;;;;;;;;;104111;1286;546077;-75
2023/10/24 18:08:09;;;;;;;46.90;31.30;;;;;;;;;;103789;1289;544990;-75
2023/10/24 18:11:48;;;;;;;119.00;74.60;;;;;;;;;;104145;1286;545066;-75
2023/10/24 18:15:24;;;;;;;88.60;56.90;;;;;;;;;;103741;1295;544973;-78
2023/10/24 18:19:01;;;;;;;84.10;54.60;;;;;;;;;;103797;1291;545483;-74
2023/10/24 18:22:36;;;;;;;79.20;51.20;;;;;;;;;;103884;1292;545139;-84
2023/10/24 18:26:16;;;;;;;74.80;49.10;;;;;;;;;;103747;1289;545333;-74
2023/10/24 18:29:53;;;;;;;66.70;44.30;;;;;;;;;;103668;1291;545008;-75
2023/10/24 18:33:34;;;;;;;52.60;35.70;;;;;;;;;;104144;1289;544945;-75
2023/10/24 18:37:08;;;;;;;43.50;29.90;;;;;;;;;;103834;1288;545922;-74
2023/10/24 18:40:49;;;;;;;34.80;21.50;;;;;;;;;;103738;1289;544906;-74
2023/10/24 18:44:23;;;;;;;30.60;19.50;;;;;;;;;;103741;1289;545234;-76
2023/10/24 18:48:01;;;;;;;31.10;19.20;;;;;;;;;;103881;1289;544920;-74
2023/10/24 18:51:38;;;;;;;26.40;16.80;;;;;;;;;;104006;1288;545409;-75
2023/10/24 18:55:16;;;;;;;29.00;19.10;;;;;;;;;;104060;1289;545047;-78
2023/10/24 18:58:53;;;;;;;27.20;17.20;;;;;;;;;;103684;1292;545485;-74
2023/10/24 19:02:34;;;;;;;26.60;17.80;;;;;;;;;;103737;1288;545086;-74
2023/10/24 19:06:05;;;;;;;24.20;16.20;;;;;;;;;;103842;1292;545793;-77
2023/10/24 19:09:46;;;;;;;25.40;17.00;;;;;;;;;;103768;1291;544701;-76
2023/10/24 19:13:24;;;;;;;27.90;18.50;;;;;;;;;;103711;1292;545301;-75
2023/10/24 19:17:02;;;;;;;24.20;16.30;;;;;;;;;;103664;1289;544943;-75
2023/10/24 19:20:38;;;;;;;24.90;17.10;;;;;;;;;;103856;1290;545661;-75
2023/10/24 19:24:15;;;;;;;25.30;16.30;;;;;;;;;;103842;1289;544955;-75
2023/10/24 19:27:53;;;;;;;26.00;16.60;;;;;;;;;;103813;1292;546033;-75
2023/10/24 19:31:30;;;;;;;28.00;16.10;;;;;;;;;;104004;1289;545524;-75
2023/10/24 19:35:08;;;;;;;24.20;15.90;;;;;;;;;;103708;1291;545051;-75
2023/10/24 19:38:45;;;;;;;25.10;15.50;;;;;;;;;;103720;1290;545768;-78
2023/10/24 19:42:31;;;;;;;23.60;16.30;;;;;;;;;;104342;1282;548284;-75
2023/10/24 19:46:06;;;;;;;22.50;16.70;;;;;;;;;;103789;1289;545157;-77
2023/10/24 19:49:38;;;;;;;23.20;16.30;;;;;;;;;;103765;1292;544917;-75
2023/10/24 19:53:16;;;;;;;21.90;16.70;;;;;;;;;;103865;1292;545259;-75
2023/10/24 19:56:50;;;;;;;23.30;16.40;;;;;;;;;;103883;1290;544901;-74
2023/10/24 20:00:28;;;;;;;23.60;16.80;;;;;;;;;;103835;1292;545026;-79
2023/10/24 20:04:14;;;;;;;20.80;16.10;;;;;;;;;;103550;1295;547811;-77
2023/10/24 20:07:46;;;;;;;22.40;16.80;;;;;;;;;;103774;1292;544869;-77
2023/10/24 20:11:19;;;;;;;21.90;16.90;;;;;;;;;;103877;1288;545337;-76
2023/10/24 20:15:00;;;;;;;21.10;16.00;;;;;;;;;;103866;1300;544929;-77
2023/10/24 20:18:37;;;;;;;19.70;15.80;;;;;;;;;;103757;1289;545575;-75
2023/10/24 20:22:15;;;;;;;22.50;17.30;;;;;;;;;;103820;1291;545702;-79
2023/10/24 20:25:52;;;;;;;23.30;18.30;;;;;;;;;;103741;1289;546100;-75
2023/10/24 20:29:30;;;;;;;23.90;17.40;;;;;;;;;;103662;1292;544627;-75
2023/10/24 20:33:07;;;;;;;20.40;16.60;;;;;;;;;;103892;1290;544872;-80
2023/10/24 20:36:45;;;;;;;22.00;16.30;;;;;;;;;;103736;1292;544987;-75
2023/10/24 20:40:23;;;;;;;19.70;15.50;;;;;;;;;;103748;1290;545663;-78
2023/10/24 20:43:59;;;;;;;22.20;17.10;;;;;;;;;;103714;1292;544975;-75